Time;durP1;ratioP1;P1;durP2;ratioP2;P2;SDS_P1;SDS_P2;PMS_P1;PMS_P2;Temp;Humidity;BMP_temperature;BMP_pressure;BME280_temperature;BME280_humidity;BME280_pressure;Samples;Min_cycle;Max_cycle;Signal;HPM_P1;HPM_P2
2022/04/28 00:00:12;;;;;;;5.13;2.00;;;;;;;20.43;33.73;102783.50;5092662;28;20063;-69
2022/04/28 00:02:41;;;;;;;3.72;1.65;;;;;;;20.41;33.78;102781.88;5092381;28;20023;-69
2022/04/28 00:05:07;;;;;;;4.35;1.80;;;;;;;20.40;33.73;102782.84;5092372;28;20460;-69
2022/04/28 00:07:33;;;;;;;5.47;2.30;;;;;;;20.39;33.69;102781.13;5092405;28;20111;-69
2022/04/28 00:09:59;;;;;;;4.97;1.70;;;;;;;20.38;33.65;102787.38;5091630;28;20528;-69
2022/04/28 00:12:24;;;;;;;5.20;1.58;;;;;;;20.35;33.75;102783.09;5092114;28;20048;-70
2022/04/28 00:14:50;;;;;;;4.30;1.67;;;;;;;20.35;33.58;102793.69;5092449;28;20031;-71
2022/04/28 00:17:15;;;;;;;4.30;1.70;;;;;;;20.34;33.78;102799.09;5091917;28;20035;-70
2022/04/28 00:19:40;;;;;;;4.88;1.73;;;;;;;20.33;33.73;102797.38;5092480;28;20291;-71
2022/04/28 00:22:06;;;;;;;4.15;1.70;;;;;;;20.27;33.63;102791.50;5092475;28;20440;-70
2022/04/28 00:24:31;;;;;;;5.50;1.90;;;;;;;20.28;33.73;102790.56;5091710;28;20036;-70
2022/04/28 00:26:56;;;;;;;4.40;2.10;;;;;;;20.28;33.75;102795.00;5092167;28;20031;-70
2022/04/28 00:29:21;;;;;;;3.93;1.67;;;;;;;20.27;33.84;102793.31;5092064;28;20288;-69
2022/04/28 00:31:47;;;;;;;3.83;1.65;;;;;;;20.26;33.78;102797.72;5092248;28;20028;-69
2022/04/28 00:34:13;;;;;;;5.00;1.85;;;;;;;20.25;33.83;102795.19;5092533;28;20107;-71
2022/04/28 00:36:41;;;;;;;4.40;1.55;;;;;;;20.24;33.72;102793.50;5091691;28;20020;-70
2022/04/28 00:39:06;;;;;;;4.93;1.60;;;;;;;20.22;33.92;102790.06;5092103;28;20016;-70
2022/04/28 00:41:32;;;;;;;5.18;2.05;;;;;;;20.21;33.78;102791.88;5092403;28;20108;-69
2022/04/28 00:43:57;;;;;;;4.20;2.00;;;;;;;20.19;33.81;102782.34;5091512;28;20028;-70
2022/04/28 00:46:22;;;;;;;3.85;1.67;;;;;;;20.18;33.81;102784.09;5092368;28;20529;-70
2022/04/28 00:51:34;;;;;;;3.85;2.00;;;;;;;20.15;33.84;102786.09;5091652;28;20058;-69
2022/04/28 00:54:01;;;;;;;4.30;1.67;;;;;;;20.15;33.69;102794.03;5091701;28;20520;-69
2022/04/28 00:56:27;;;;;;;5.30;1.80;;;;;;;20.13;33.96;102788.84;5092551;28;20024;-70
2022/04/28 00:58:54;;;;;;;3.92;1.77;;;;;;;20.11;33.72;102783.63;5091337;28;20028;-71
2022/04/28 01:01:19;;;;;;;3.35;1.58;;;;;;;20.10;33.65;102787.22;5092178;28;20031;-70
2022/04/28 01:03:46;;;;;;;4.57;1.85;;;;;;;20.09;33.71;102790.81;5092533;28;20099;-70
2022/04/28 01:06:12;;;;;;;4.80;1.75;;;;;;;20.08;33.56;102783.81;5091301;28;20542;-70
2022/04/28 01:08:37;;;;;;;4.50;1.73;;;;;;;20.07;33.71;102776.78;5092164;28;20024;-70
2022/04/28 01:11:06;;;;;;;4.45;1.67;;;;;;;20.06;33.77;102776.88;5091555;28;20123;-70
2022/04/28 01:13:31;;;;;;;5.18;1.85;;;;;;;20.05;33.78;102777.84;5091652;28;20024;-70
2022/04/28 01:15:56;;;;;;;4.60;1.80;;;;;;;20.03;33.79;102783.22;5091987;28;20024;-70
2022/04/28 01:18:22;;;;;;;4.65;1.80;;;;;;;20.03;33.69;102780.59;5092312;28;20115;-70
2022/04/28 01:20:47;;;;;;;4.55;1.67;;;;;;;20.01;33.72;102781.59;5095084;28;20028;-70
2022/04/28 01:23:12;;;;;;;6.43;2.00;;;;;;;20.01;33.85;102790.41;5095430;28;20039;-70
2022/04/28 01:25:38;;;;;;;4.33;2.07;;;;;;;20.00;33.72;102786.06;5095191;28;20028;-70
2022/04/28 01:28:03;;;;;;;4.88;1.83;;;;;;;20.00;33.68;102798.44;5095489;28;20276;-70
2022/04/28 01:30:29;;;;;;;4.88;1.70;;;;;;;19.96;33.68;102781.88;5095834;28;20028;-69
2022/04/28 01:32:59;;;;;;;5.30;1.80;;;;;;;19.97;33.77;102788.03;5094598;28;20466;-70
2022/04/28 01:35:24;;;;;;;5.07;1.83;;;;;;;19.96;33.71;102791.63;5095574;28;20028;-70
2022/04/28 01:37:52;;;;;;;5.15;1.92;;;;;;;19.94;33.63;102787.25;5095220;28;20039;-70
2022/04/28 01:40:17;;;;;;;4.20;1.70;;;;;;;19.93;33.80;102790.00;5094944;28;20039;-70
2022/04/28 01:42:47;;;;;;;5.18;1.92;;;;;;;19.93;33.72;102790.00;5095808;28;20020;-70
2022/04/28 01:45:13;;;;;;;6.28;2.13;;;;;;;19.91;33.65;102794.53;5095284;28;20541;-69
2022/04/28 01:47:39;;;;;;;3.75;1.88;;;;;;;19.91;33.74;102787.44;5094713;28;20028;-70
2022/04/28 01:50:05;;;;;;;5.13;1.70;;;;;;;19.90;33.65;102788.41;5095244;28;20031;-70
2022/04/28 01:55:14;;;;;;;4.25;1.90;;;;;;;19.87;33.73;102785.94;5094910;28;20070;-70
2022/04/28 01:57:39;;;;;;;3.78;1.88;;;;;;;19.86;33.79;102783.38;5095139;28;20028;-70
2022/04/28 02:00:06;;;;;;;4.75;1.80;;;;;;;19.85;33.70;102785.19;5094950;28;20077;-70
2022/04/28 02:02:33;;;;;;;5.10;2.03;;;;;;;19.85;33.78;102789.59;5094647;28;20032;-69
2022/04/28 02:05:01;;;;;;;4.65;1.70;;;;;;;19.84;33.84;102788.75;5094854;28;20031;-70
2022/04/28 02:07:27;;;;;;;3.63;1.58;;;;;;;19.82;33.84;102790.63;5095270;28;20066;-70
2022/04/28 02:09:53;;;;;;;4.28;1.80;;;;;;;19.82;33.61;102795.06;5093975;28;20024;-70
2022/04/28 02:12:19;;;;;;;4.43;1.77;;;;;;;19.81;33.72;102798.66;5094846;28;20130;-70
2022/04/28 02:14:46;;;;;;;4.30;1.77;;;;;;;19.79;33.83;102793.47;5094750;28;20115;-69
2022/04/28 02:17:11;;;;;;;4.85;2.17;;;;;;;19.79;33.81;102790.81;5096032;28;20020;-70
2022/04/28 02:19:36;;;;;;;5.53;1.80;;;;;;;19.79;33.64;102797.88;5097739;28;20044;-69
2022/04/28 02:22:05;;;;;;;4.45;1.92;;;;;;;19.80;33.69;102783.72;5095796;28;20020;-70
2022/04/28 02:24:30;;;;;;;4.88;2.15;;;;;;;19.78;33.77;102796.19;5096734;28;20024;-69
2022/04/28 02:26:55;;;;;;;5.43;1.90;;;;;;;19.77;33.52;102795.31;5094463;28;20498;-69
2022/04/28 02:29:21;;;;;;;4.83;1.93;;;;;;;19.78;33.67;102796.19;5093907;28;20035;-69
2022/04/28 02:31:46;;;;;;;4.80;1.83;;;;;;;19.75;33.59;102784.78;5094523;28;20028;-69
2022/04/28 02:34:11;;;;;;;3.80;1.80;;;;;;;19.75;33.67;102795.38;5094207;28;20024;-70
2022/04/28 02:36:37;;;;;;;3.80;1.65;;;;;;;19.72;33.54;102792.91;5093908;28;20269;-69
2022/04/28 02:39:03;;;;;;;4.15;1.88;;;;;;;19.72;33.68;102792.91;5094323;28;20483;-69
2022/04/28 02:41:28;;;;;;;4.40;1.90;;;;;;;19.70;33.62;102788.66;5094364;28;20056;-69
2022/04/28 02:43:54;;;;;;;5.20;2.80;;;;;;;19.70;33.63;102792.16;5093251;28;20052;-69
2022/04/28 02:46:19;;;;;;;3.93;1.60;;;;;;;19.69;33.87;102789.59;5094127;28;20145;-69
2022/04/28 02:48:45;;;;;;;3.92;1.70;;;;;;;19.68;33.62;102782.63;5093589;28;20273;-69
2022/04/28 02:51:11;;;;;;;5.07;2.00;;;;;;;19.67;33.84;102787.03;5093236;28;20123;-70
2022/04/28 02:53:39;;;;;;;3.50;1.95;;;;;;;19.66;33.83;102774.78;5094240;28;20107;-70
2022/04/28 02:56:07;;;;;;;4.82;2.00;;;;;;;19.65;33.61;102782.78;5093700;28;20069;-70
2022/04/28 02:58:36;;;;;;;4.28;1.85;;;;;;;19.64;33.55;102781.06;5093127;28;20107;-70
2022/04/28 03:01:04;;;;;;;5.40;1.92;;;;;;;19.64;33.51;102784.56;5093713;28;20067;-70
2022/04/28 03:03:30;;;;;;;4.75;1.83;;;;;;;19.63;33.79;102782.88;5094187;28;20030;-70
2022/04/28 03:11:23;;;;;;;4.05;1.80;;;;;;;19.61;33.83;102789.19;5093176;28;20079;-70
2022/04/28 03:13:49;;;;;;;4.15;1.90;;;;;;;19.61;33.70;102789.19;5093663;28;20463;-71
2022/04/28 03:16:14;;;;;;;3.60;1.58;;;;;;;19.59;33.60;102789.28;5093928;28;20059;-70
2022/04/28 03:18:39;;;;;;;4.43;1.98;;;;;;;19.58;33.71;102783.13;5093045;28;20108;-70
2022/04/28 03:21:05;;;;;;;5.03;2.08;;;;;;;19.57;33.71;102783.22;5093370;28;20463;-70
2022/04/28 03:23:34;;;;;;;4.60;1.77;;;;;;;19.56;33.66;102784.16;5093809;28;20453;-70
2022/04/28 03:26:00;;;;;;;5.47;2.20;;;;;;;19.56;33.82;102786.78;5092616;28;20383;-69
2022/04/28 03:28:25;;;;;;;4.63;2.05;;;;;;;19.55;33.69;102787.72;5093533;28;20452;-69
2022/04/28 03:30:51;;;;;;;4.70;1.88;;;;;;;19.53;33.70;102779.88;5093448;28;20050;-69
2022/04/28 03:33:17;;;;;;;4.05;1.75;;;;;;;19.53;33.64;102790.47;5092815;28;20027;-69
2022/04/28 03:35:43;;;;;;;4.13;2.10;;;;;;;19.55;33.76;102787.72;5093517;28;20028;-70
2022/04/28 03:38:14;;;;;;;4.65;1.90;;;;;;;19.53;33.49;102792.25;5093171;28;20076;-70
2022/04/28 03:40:40;;;;;;;4.53;1.73;;;;;;;19.51;33.65;102795.00;5092595;28;20022;-70
2022/04/28 03:43:06;;;;;;;4.30;2.00;;;;;;;19.51;33.64;102789.69;5092499;28;20501;-68
2022/04/28 03:45:32;;;;;;;4.97;1.90;;;;;;;19.50;33.61;102785.38;5093313;28;20032;-69
2022/04/28 03:47:58;;;;;;;5.20;2.10;;;;;;;19.50;33.81;102789.78;5092280;28;20448;-68
2022/04/28 03:50:24;;;;;;;4.95;1.92;;;;;;;19.49;34.10;102790.75;5093298;28;20114;-69
2022/04/28 03:52:49;;;;;;;5.97;1.92;;;;;;;19.49;33.58;102796.03;5092868;28;20110;-70
2022/04/28 03:55:14;;;;;;;5.63;2.00;;;;;;;19.48;33.81;102796.97;5092236;28;20107;-70
2022/04/28 03:57:41;;;;;;;5.20;2.28;;;;;;;19.47;33.66;102798.75;5093015;28;20043;-68
2022/04/28 04:00:09;;;;;;;4.03;2.10;;;;;;;19.48;33.63;102794.31;5092895;28;20032;-68
2022/04/28 04:02:35;;;;;;;3.95;2.00;;;;;;;19.46;33.69;102802.34;5092371;28;20047;-69
2022/04/28 04:05:00;;;;;;;4.50;1.85;;;;;;;19.44;33.67;102804.22;5092668;28;20028;-70
2022/04/28 04:07:32;;;;;;;4.50;2.05;;;;;;;19.44;33.63;102801.56;5092270;28;20024;-70
2022/04/28 04:09:58;;;;;;;5.13;2.22;;;;;;;19.43;33.66;102797.22;5092569;28;20024;-70
2022/04/28 04:12:26;;;;;;;4.38;1.80;;;;;;;19.44;33.45;102806.88;5092458;28;20070;-70
2022/04/28 04:14:55;;;;;;;4.78;1.83;;;;;;;19.43;33.54;102802.50;5091865;28;20064;-69
2022/04/28 04:17:23;;;;;;;4.53;1.98;;;;;;;19.40;33.59;102800.88;5093098;28;20020;-70
2022/04/28 04:19:48;;;;;;;4.40;2.00;;;;;;;19.39;33.71;102807.13;5092732;28;20081;-69
2022/04/28 04:22:13;;;;;;;3.17;1.70;;;;;;;19.39;33.49;102804.47;5092007;28;20027;-70
2022/04/28 04:24:40;;;;;;;4.47;2.13;;;;;;;19.38;33.48;102805.41;5092816;28;20468;-70
2022/04/28 04:27:06;;;;;;;4.05;1.88;;;;;;;19.39;33.74;102811.53;5092717;28;20036;-69
2022/04/28 04:29:32;;;;;;;4.22;1.95;;;;;;;19.40;33.93;102803.53;5091801;28;20024;-69
2022/04/28 04:34:40;;;;;;;4.65;2.00;;;;;;;19.49;33.87;102810.09;5092949;28;20039;-70
2022/04/28 04:37:09;;;;;;;5.07;2.08;;;;;;;19.53;33.99;102810.78;5091676;28;20016;-70
2022/04/28 04:39:34;;;;;;;4.53;1.80;;;;;;;19.57;33.72;102818.44;5092604;28;20028;-70
2022/04/28 04:41:59;;;;;;;3.88;2.10;;;;;;;19.60;33.56;102814.78;5092552;28;20115;-69
2022/04/28 04:44:24;;;;;;;4.32;1.85;;;;;;;19.64;33.51;102818.94;5091956;28;20024;-70
2022/04/28 04:46:50;;;;;;;3.80;1.65;;;;;;;19.69;33.45;102824.84;5092381;28;20036;-70
2022/04/28 04:49:15;;;;;;;3.97;1.83;;;;;;;19.71;33.21;102822.97;5092518;28;20099;-68
2022/04/28 04:51:43;;;;;;;4.30;1.73;;;;;;;19.73;33.17;102820.22;5092210;28;20463;-69
2022/04/28 04:54:08;;;;;;;4.95;1.80;;;;;;;19.75;33.12;102828.94;5093510;28;20686;-68
2022/04/28 04:56:39;;;;;;;3.83;1.87;;;;;;;19.77;33.22;102828.88;5095603;28;20020;-69
2022/04/28 04:59:04;;;;;;;4.00;1.83;;;;;;;19.79;33.42;102829.63;5096235;28;20317;-69
2022/04/28 05:01:30;;;;;;;5.97;2.10;;;;;;;19.80;33.07;102831.34;5096166;28;20070;-68
2022/04/28 05:03:55;;;;;;;4.68;2.00;;;;;;;19.80;32.81;102834.00;5095184;28;20038;-68
2022/04/28 05:06:21;;;;;;;4.30;1.80;;;;;;;19.79;33.06;102827.84;5096528;28;20433;-68
2022/04/28 05:08:46;;;;;;;4.30;1.98;;;;;;;19.80;33.03;102831.34;5096156;28;20107;-68
2022/04/28 05:11:11;;;;;;;6.35;2.10;;;;;;;19.81;32.97;102847.13;5095034;28;20060;-68
2022/04/28 05:13:39;;;;;;;3.17;1.83;;;;;;;19.81;32.97;102847.13;5096113;28;20107;-67
2022/04/28 05:16:05;;;;;;;4.60;1.80;;;;;;;19.80;32.92;102856.00;5095651;28;20026;-67
2022/04/28 05:18:33;;;;;;;4.55;1.98;;;;;;;19.81;33.23;102859.53;5095195;28;20487;-68
2022/04/28 05:20:59;;;;;;;4.22;1.90;;;;;;;19.82;33.01;102859.44;5095976;28;20024;-68
2022/04/28 05:23:24;;;;;;;5.00;2.10;;;;;;;19.83;33.04;102863.75;5095789;28;20020;-68
2022/04/28 05:25:50;;;;;;;5.15;1.95;;;;;;;19.84;33.55;102864.63;5095033;28;20032;-69
2022/04/28 05:28:18;;;;;;;5.68;1.92;;;;;;;19.84;34.08;102864.63;5096079;28;20028;-68
2022/04/28 05:30:43;;;;;;;4.30;1.70;;;;;;;19.87;34.44;102864.47;5095873;28;20329;-67
2022/04/28 05:33:09;;;;;;;4.05;1.95;;;;;;;19.86;34.79;102866.22;5094626;28;20028;-67
2022/04/28 05:35:41;;;;;;;4.78;1.70;;;;;;;19.87;34.75;102867.94;5095791;28;20067;-67
2022/04/28 05:38:09;;;;;;;4.10;1.50;;;;;;;19.90;34.65;102869.56;5095454;28;20077;-68
2022/04/28 05:40:34;;;;;;;3.38;1.50;;;;;;;19.93;34.57;102872.03;5094902;28;20039;-68
2022/04/28 05:45:47;;;;;;;5.07;1.70;;;;;;;20.01;34.56;102874.25;5095580;28;20039;-67
2022/04/28 05:48:14;;;;;;;3.30;1.60;;;;;;;20.04;34.53;102879.34;5095530;28;20031;-67
2022/04/28 05:50:41;;;;;;;3.63;1.70;;;;;;;20.08;34.22;102879.09;5095400;28;20097;-67
2022/04/28 05:53:07;;;;;;;3.30;1.50;;;;;;;20.11;34.44;102878.06;5094338;28;20043;-67
2022/04/28 05:55:32;;;;;;;3.53;1.77;;;;;;;20.15;34.34;102890.19;5094630;28;20040;-68
2022/04/28 05:57:59;;;;;;;3.60;1.42;;;;;;;20.20;34.28;102887.25;5094948;28;20020;-68
2022/04/28 06:00:25;;;;;;;4.53;1.75;;;;;;;20.23;34.35;102890.56;5094344;28;20113;-68
2022/04/28 06:02:50;;;;;;;5.18;2.10;;;;;;;20.26;34.31;102892.22;5094981;28;20026;-69
2022/04/28 06:05:16;;;;;;;4.50;1.63;;;;;;;20.28;34.24;102898.25;5094821;28;20107;-68
2022/04/28 06:07:41;;;;;;;4.10;1.58;;;;;;;20.28;34.13;102898.25;5094671;28;20277;-72
2022/04/28 06:10:07;;;;;;;2.73;1.40;;;;;;;20.24;34.28;102897.59;5095014;28;20028;-69
2022/04/28 06:12:32;;;;;;;3.97;1.70;;;;;;;20.25;33.96;102904.59;5096583;28;20601;-72
2022/04/28 06:15:00;;;;;;;3.83;1.70;;;;;;;20.25;34.09;102906.38;5098270;28;20028;-71
2022/04/28 06:17:25;;;;;;;4.72;1.50;;;;;;;20.23;34.43;102902.97;5098043;28;20277;-70
2022/04/28 06:19:53;;;;;;;3.95;1.55;;;;;;;20.20;34.45;102916.38;5095664;28;20460;-71
2022/04/28 06:22:19;;;;;;;3.80;1.58;;;;;;;20.18;34.85;102910.34;5095063;28;20077;-68
2022/04/28 06:24:44;;;;;;;3.72;1.48;;;;;;;20.17;34.91;102913.91;5093585;28;20032;-69
2022/04/28 06:27:10;;;;;;;3.38;1.40;;;;;;;20.18;34.86;102919.13;5094935;28;20035;-74
2022/04/28 06:29:35;;;;;;;6.15;1.63;;;;;;;20.20;34.80;102917.25;5096193;28;20046;-72
2022/04/28 06:32:00;;;;;;;3.53;1.70;;;;;;;20.21;35.17;102920.75;5095628;28;20031;-75
2022/04/28 06:34:25;;;;;;;3.53;1.50;;;;;;;20.22;35.20;102920.66;5096677;28;20418;-74
2022/04/28 06:36:53;;;;;;;3.20;1.20;;;;;;;20.23;35.25;102921.50;5095423;28;20502;-69
2022/04/28 06:39:19;;;;;;;4.28;1.50;;;;;;;20.27;35.17;102925.69;5095606;28;20024;-70
2022/04/28 06:41:44;;;;;;;4.83;1.70;;;;;;;20.26;35.28;102922.16;5094955;28;20024;-70
2022/04/28 06:44:12;;;;;;;4.10;1.48;;;;;;;20.28;35.29;102920.31;5094715;28;20284;-70
2022/04/28 06:46:37;;;;;;;4.35;1.52;;;;;;;20.33;35.14;102929.75;5095699;28;20124;-71
2022/04/28 06:49:02;;;;;;;3.70;1.40;;;;;;;20.37;35.00;102926.84;5096260;28;20421;-73
2022/04/28 06:51:28;;;;;;;5.50;2.40;;;;;;;20.42;34.88;102929.22;5095474;28;20284;-71
2022/04/28 06:53:53;;;;;;;3.50;1.58;;;;;;;20.45;35.13;102927.25;5094541;28;20085;-71
2022/04/28 06:56:18;;;;;;;4.32;1.45;;;;;;;20.47;34.87;102930.69;5094618;28;20500;-70
2022/04/28 06:58:46;;;;;;;4.90;1.65;;;;;;;20.50;34.77;102932.28;5095745;28;20039;-72
2022/04/28 07:01:12;;;;;;;3.00;1.30;;;;;;;20.55;34.90;102939.97;5095612;28;20028;-68
2022/04/28 07:03:40;;;;;;;4.85;1.67;;;;;;;20.58;34.90;102937.13;5095183;28;20030;-72
2022/04/28 07:06:08;;;;;;;4.05;1.40;;;;;;;20.60;34.73;102937.88;5097944;28;20472;-70
2022/04/28 07:08:33;;;;;;;3.53;1.50;;;;;;;20.64;34.99;102948.25;5097672;28;20431;-70
2022/04/28 07:10:59;;;;;;;3.75;1.50;;;;;;;20.67;35.07;102949.88;5094562;28;20118;-69
2022/04/28 07:13:25;;;;;;;3.78;1.42;;;;;;;20.69;34.86;102955.09;5095579;28;20041;-73
2022/04/28 07:15:50;;;;;;;3.90;1.50;;;;;;;20.69;35.10;102953.28;5097618;28;20024;-68
2022/04/28 07:18:16;;;;;;;5.30;1.65;;;;;;;20.69;35.08;102958.56;5097830;28;20027;-77
2022/04/28 07:20:44;;;;;;;5.15;1.60;;;;;;;20.69;35.17;102961.22;5100405;28;20051;-73
2022/04/28 07:23:16;;;;;;;4.22;1.27;;;;;;;20.68;35.13;102958.66;5096518;28;20035;-70
2022/04/28 07:25:41;;;;;;;4.20;1.50;;;;;;;20.69;35.24;102965.69;5095164;28;20063;-73
2022/04/28 07:28:07;;;;;;;3.60;1.33;;;;;;;20.71;35.17;102963.78;5094837;28;20024;-70
2022/04/28 07:30:32;;;;;;;6.68;1.50;;;;;;;20.71;35.11;102972.59;5095346;28;20035;-74
2022/04/28 07:32:58;;;;;;;4.57;1.70;;;;;;;20.74;35.29;102980.34;5095546;28;20024;-72
2022/04/28 07:35:26;;;;;;;4.60;1.47;;;;;;;20.75;35.23;102976.75;5095236;28;20031;-73
2022/04/28 07:37:52;;;;;;;3.90;2.30;;;;;;;20.78;35.33;102981.03;5094380;28;20628;-68
2022/04/28 07:40:18;;;;;;;4.45;1.52;;;;;;;20.79;35.24;102977.44;5093305;28;20024;-68
2022/04/28 07:42:44;;;;;;;5.18;1.48;;;;;;;20.78;35.35;102973.94;5094014;28;20035;-68
2022/04/28 07:45:10;;;;;;;4.35;1.35;;;;;;;20.79;35.28;102985.38;5093416;28;20027;-68
2022/04/28 07:47:35;;;;;;;5.25;1.60;;;;;;;20.77;35.33;102985.47;5093171;28;20396;-69
2022/04/28 07:50:01;;;;;;;5.97;1.45;;;;;;;20.79;35.31;102988.91;5093493;28;20044;-70
2022/04/28 07:52:26;;;;;;;5.82;1.60;;;;;;;20.82;35.38;102985.19;5093520;28;20036;-72
2022/04/28 07:54:52;;;;;;;3.15;1.40;;;;;;;20.82;35.30;102990.50;5093575;28;20028;-69
2022/04/28 07:57:17;;;;;;;5.22;1.60;;;;;;;20.80;35.32;102990.59;5094551;28;20372;-72
2022/04/28 07:59:43;;;;;;;5.65;1.75;;;;;;;20.82;35.30;102988.72;5093843;28;20588;-70
2022/04/28 08:02:11;;;;;;;4.72;1.60;;;;;;;20.82;35.31;102986.06;5093976;28;20032;-69
2022/04/28 08:04:46;;;;;;;4.07;1.70;;;;;;;20.84;35.29;102988.63;5095306;28;20028;-71
2022/04/28 08:07:11;;;;;;;4.55;1.55;;;;;;;20.83;35.54;102994.88;5093832;28;20023;-70
2022/04/28 08:09:36;;;;;;;5.45;1.77;;;;;;;20.80;35.46;103003.00;5094777;28;20032;-71
2022/04/28 08:12:05;;;;;;;4.13;1.40;;;;;;;20.77;35.75;103004.03;5094538;28;20048;-70
2022/04/28 08:14:32;;;;;;;3.28;1.40;;;;;;;20.78;35.73;103002.25;5095321;28;20321;-70
2022/04/28 08:17:04;;;;;;;4.30;1.50;;;;;;;20.79;35.57;103006.56;5093421;28;20024;-72
2022/04/28 08:19:32;;;;;;;4.15;1.67;;;;;;;20.79;35.79;103001.28;5093785;28;20035;-72
2022/04/28 08:21:58;;;;;;;5.35;1.50;;;;;;;20.79;35.59;103001.28;5092670;28;20035;-69
2022/04/28 08:24:26;;;;;;;3.22;1.40;;;;;;;20.81;35.77;103004.72;5093320;28;20024;-69
2022/04/28 08:26:54;;;;;;;4.88;1.88;;;;;;;20.82;35.58;103011.69;5093167;28;20145;-69
2022/04/28 08:29:21;;;;;;;3.28;1.50;;;;;;;20.82;35.26;103012.56;5096523;28;20020;-72
2022/04/28 08:31:46;;;;;;;5.22;1.80;;;;;;;20.83;35.43;103019.56;5097501;28;20028;-68
2022/04/28 08:34:13;;;;;;;4.90;1.50;;;;;;;20.85;35.49;103016.81;5096954;28;20028;-63
2022/04/28 08:36:48;;;;;;;4.00;1.30;;;;;;;20.88;35.47;103018.44;5098255;28;20039;-67
2022/04/28 08:39:13;;;;;;;6.22;1.65;;;;;;;20.97;35.25;103017.91;5103450;28;20028;-71
2022/04/28 08:41:47;;;;;;;6.30;1.50;;;;;;;21.07;35.15;103012.91;5097776;28;20027;-69
2022/04/28 08:44:24;;;;;;;5.33;1.63;;;;;;;21.13;34.93;103010.72;5097449;28;20028;-69
2022/04/28 08:46:52;;;;;;;5.47;2.15;;;;;;;21.20;34.64;103013.88;5098367;28;20815;-70
2022/04/28 08:49:26;;;;;;;6.32;2.00;;;;;;;21.27;34.63;103017.00;5097559;28;20028;-70
2022/04/28 08:51:53;;;;;;;4.18;1.48;;;;;;;21.33;34.31;103021.94;5098854;28;20028;-73
2022/04/28 08:54:20;;;;;;;5.40;1.70;;;;;;;21.38;34.40;103019.88;5097695;28;20024;-72
2022/04/28 08:56:45;;;;;;;4.60;1.63;;;;;;;21.43;34.45;103016.91;5097923;28;20375;-73
2022/04/28 08:59:11;;;;;;;6.13;2.05;;;;;;;21.46;34.49;103009.63;5097771;28;20107;-68
2022/04/28 09:01:36;;;;;;;6.80;1.60;;;;;;;21.50;34.34;103020.94;5096715;28;20429;-68
2022/04/28 09:04:04;;;;;;;4.60;1.60;;;;;;;21.53;33.96;103015.44;5096703;28;20273;-67
2022/04/28 09:06:34;;;;;;;4.35;1.50;;;;;;;21.55;34.24;103017.06;5097240;28;20104;-68
2022/04/28 09:09:04;;;;;;;4.03;1.50;;;;;;;21.56;34.00;103015.25;5096967;28;20024;-67
2022/04/28 09:11:37;;;;;;;6.25;1.73;;;;;;;21.60;33.91;103015.91;5095844;28;20487;-70
2022/04/28 09:14:10;;;;;;;5.88;1.63;;;;;;;21.59;34.24;103009.75;5097546;28;20111;-70
2022/04/28 09:16:45;;;;;;;6.45;1.70;;;;;;;21.54;33.94;103006.56;5097287;28;20024;-72
2022/04/28 09:19:14;;;;;;;5.45;1.52;;;;;;;21.51;34.53;102999.63;5097511;28;20107;-70
2022/04/28 09:21:40;;;;;;;5.93;1.65;;;;;;;21.56;34.33;103007.28;5097974;28;20062;-68
2022/04/28 09:24:06;;;;;;;3.42;1.60;;;;;;;21.60;34.27;103011.44;5095816;28;20457;-68
2022/04/28 09:26:34;;;;;;;4.22;1.50;;;;;;;21.62;34.24;103006.91;5096770;28;20024;-65
2022/04/28 09:29:03;;;;;;;3.45;1.40;;;;;;;21.58;34.53;103004.56;5097235;28;20024;-72
2022/04/28 09:31:33;;;;;;;6.55;1.50;;;;;;;21.51;34.46;102999.63;5097219;28;20026;-70
2022/04/28 09:34:13;;;;;;;4.63;1.70;;;;;;;21.44;34.54;102995.59;5096794;28;20037;-71
2022/04/28 09:36:40;;;;;;;2.97;1.25;;;;;;;21.41;34.48;103000.25;5097344;28;20020;-71
2022/04/28 09:39:07;;;;;;;4.68;1.80;;;;;;;21.41;34.29;102986.97;5095505;28;20107;-70
2022/04/28 09:44:20;;;;;;;4.57;1.35;;;;;;;21.38;34.35;102993.34;5097393;28;20483;-70
2022/04/28 09:46:47;;;;;;;4.10;1.40;;;;;;;21.35;34.48;102998.84;5096030;28;20111;-69
2022/04/28 09:49:21;;;;;;;5.15;1.27;;;;;;;21.33;34.69;103000.72;5096528;28;20032;-70
2022/04/28 09:51:46;;;;;;;3.88;1.63;;;;;;;21.32;34.30;102994.56;5095783;28;20025;-68
2022/04/28 09:54:14;;;;;;;3.92;1.60;;;;;;;21.31;34.63;102987.53;5095542;28;20051;-71
2022/04/28 09:56:41;;;;;;;6.88;2.10;;;;;;;21.32;34.42;102986.59;5097154;28;20020;-74
2022/04/28 09:59:09;;;;;;;4.82;1.63;;;;;;;21.32;34.42;102991.91;5096008;28;20028;-76
2022/04/28 10:01:35;;;;;;;3.90;1.33;;;;;;;21.33;34.48;102985.66;5097988;28;20032;-77
2022/04/28 10:04:01;;;;;;;4.78;1.40;;;;;;;21.29;34.53;102984.13;5098021;28;20020;-75
2022/04/28 10:06:27;;;;;;;5.05;1.40;;;;;;;21.26;34.78;102979.03;5097885;28;20023;-76
2022/04/28 10:08:56;;;;;;;5.20;1.50;;;;;;;21.25;34.83;102976.47;5097505;28;20024;-74
2022/04/28 10:11:23;;;;;;;4.05;1.25;;;;;;;21.25;34.66;102981.78;5096869;28;20048;-71
2022/04/28 10:13:50;;;;;;;4.03;1.70;;;;;;;21.27;34.21;102977.22;5097762;28;20016;-77
2022/04/28 10:16:19;;;;;;;3.60;1.60;;;;;;;21.25;34.34;102974.66;5106802;28;20375;-77
2022/04/28 10:18:48;;;;;;;5.97;1.80;;;;;;;21.23;34.83;102975.72;5097143;28;20032;-76
2022/04/28 10:21:20;;;;;;;4.07;1.52;;;;;;;21.20;34.82;102974.09;5095865;28;20020;-76
2022/04/28 10:32:55;;;;;;;4.13;1.40;;;;;;;21.50;34.67;102966.06;5097820;28;20027;-72
2022/04/28 10:35:49;;;;;;;8.88;1.90;;;;;;;21.53;34.32;102970.34;5095193;28;20058;-72
2022/04/28 10:38:31;;;;;;;5.70;1.90;;;;;;;21.56;34.34;102964.84;5097494;28;20115;-72
2022/04/28 10:41:08;;;;;;;6.00;1.70;;;;;;;21.58;34.15;102972.72;5097541;28;20024;-67
2022/04/28 10:43:33;;;;;;;5.80;3.13;;;;;;;21.56;34.18;102970.16;5094054;28;20036;-69
2022/04/28 10:46:01;;;;;;;4.63;2.20;;;;;;;21.52;34.48;102963.31;5094886;28;20028;-67
2022/04/28 10:48:29;;;;;;;5.32;1.52;;;;;;;21.48;34.52;102959.16;5093618;28;20476;-65
2022/04/28 10:51:06;;;;;;;5.82;1.92;;;;;;;21.44;34.49;102966.41;5093303;28;20035;-66
2022/04/28 10:53:33;;;;;;;4.75;1.67;;;;;;;21.44;34.75;102958.47;5094616;28;20024;-68
2022/04/28 10:56:08;;;;;;;4.60;1.60;;;;;;;21.46;34.53;102958.38;5095975;28;20031;-69
2022/04/28 10:58:33;;;;;;;8.43;1.90;;;;;;;21.53;33.57;102963.22;5095243;28;20067;-69
2022/04/28 11:01:04;;;;;;;4.32;1.95;;;;;;;21.52;33.28;102963.31;5094817;28;20056;-73
2022/04/28 11:03:48;;;;;;;5.22;2.08;;;;;;;21.44;33.40;102949.66;5094112;28;20028;-65
2022/04/28 11:06:15;;;;;;;5.43;2.20;;;;;;;21.37;33.90;102952.69;5094242;28;20022;-69
2022/04/28 11:08:47;;;;;;;3.92;1.70;;;;;;;21.35;34.10;102956.41;5094246;28;20035;-69
2022/04/28 11:11:13;;;;;;;4.88;1.90;;;;;;;21.36;33.70;102948.34;5093013;28;20102;-68
2022/04/28 11:13:43;;;;;;;5.35;2.10;;;;;;;21.36;34.11;102939.53;5094477;28;20107;-69
2022/04/28 11:16:10;;;;;;;7.78;2.65;;;;;;;21.32;34.46;102952.13;5094026;28;20028;-69
2022/04/28 11:18:35;;;;;;;6.35;1.70;;;;;;;21.29;34.65;102948.81;5093470;28;20036;-70
2022/04/28 11:21:02;;;;;;;8.23;1.80;;;;;;;21.30;34.55;102953.16;5093685;28;20024;-67
2022/04/28 11:23:55;;;;;;;5.05;1.60;;;;;;;21.29;34.70;102949.66;5093448;28;20039;-70
2022/04/28 11:26:24;;;;;;;3.30;1.48;;;;;;;21.29;34.52;102949.66;5091563;28;20039;-69
2022/04/28 11:28:51;;;;;;;5.00;1.45;;;;;;;21.30;34.39;102950.50;5093675;28;20020;-70
2022/04/28 11:31:18;;;;;;;4.35;1.48;;;;;;;21.28;34.67;102947.94;5092999;28;20094;-70
2022/04/28 11:33:46;;;;;;;5.00;1.45;;;;;;;21.27;34.35;102938.31;5093702;28;20024;-69
2022/04/28 11:36:25;;;;;;;2.90;1.52;;;;;;;21.27;34.59;102929.47;5093668;28;20020;-68
2022/04/28 11:38:54;;;;;;;3.42;1.40;;;;;;;21.26;34.72;102944.56;5092541;28;20024;-68
2022/04/28 11:41:24;;;;;;;3.65;1.58;;;;;;;21.25;34.78;102939.34;5093491;28;20487;-69
2022/04/28 11:43:50;;;;;;;4.38;1.40;;;;;;;21.25;34.55;102934.88;5093398;28;20035;-68
2022/04/28 11:46:16;;;;;;;3.67;1.50;;;;;;;21.24;34.88;102932.31;5092624;28;20042;-68
2022/04/28 11:48:42;;;;;;;3.40;1.52;;;;;;;21.21;34.78;102933.38;5093459;28;20035;-68
2022/04/28 11:51:07;;;;;;;3.58;1.60;;;;;;;21.23;34.89;102941.25;5093101;28;20020;-69